Time;durP1;ratioP1;P1;durP2;ratioP2;P2;SDS_P1;SDS_P2;PMS_P1;PMS_P2;Temp;Humidity;BMP_temperature;BMP_pressure;BME280_temperature;BME280_humidity;BME280_pressure;Samples;Min_cycle;Max_cycle;Signal;HPM_P1;HPM_P2
2022/03/12 00:02:12;;;;;;;13.25;8.10;;;;;;;12.43;39.83;101257.75;5104048;28;20075;-60
2022/03/12 00:04:41;;;;;;;11.32;7.45;;;;;;;12.42;39.94;101250.69;5095619;28;20048;-60
2022/03/12 00:07:11;;;;;;;13.70;7.40;;;;;;;12.43;39.88;101254.22;5106231;28;20040;-60
2022/03/12 00:09:39;;;;;;;10.57;7.47;;;;;;;12.42;39.88;101252.56;5102839;28;20060;-60
2022/03/12 00:12:08;;;;;;;11.68;7.53;;;;;;;12.39;39.95;101249.28;5092911;28;20055;-60
2022/03/12 00:14:37;;;;;;;11.02;7.13;;;;;;;12.41;40.21;101251.75;5106594;28;20218;-60
2022/03/12 00:17:06;;;;;;;12.25;7.43;;;;;;;12.39;39.92;101246.56;5096681;28;20072;-60
2022/03/12 00:19:34;;;;;;;12.38;8.25;;;;;;;12.39;39.82;101251.97;5101266;28;20066;-60
2022/03/12 00:22:04;;;;;;;10.75;7.15;;;;;;;12.39;40.03;101256.53;5105010;28;20047;-60
2022/03/12 00:24:34;;;;;;;11.88;7.95;;;;;;;12.39;39.77;101253.84;5102232;28;20357;-60
2022/03/12 00:27:02;;;;;;;13.70;8.25;;;;;;;12.38;40.03;101261.09;5105013;28;20163;-58
2022/03/12 00:29:31;;;;;;;13.02;7.80;;;;;;;12.36;40.01;101273.97;5103453;28;20078;-60
2022/03/12 00:31:59;;;;;;;15.70;7.43;;;;;;;12.36;40.14;101262.38;5104481;28;20120;-60
2022/03/12 00:34:27;;;;;;;11.10;6.32;;;;;;;12.36;40.00;101271.28;5105541;28;20102;-60
2022/03/12 00:36:55;;;;;;;11.13;8.10;;;;;;;12.35;40.44;101274.19;5101947;28;20134;-60
2022/03/12 00:39:22;;;;;;;13.00;8.18;;;;;;;12.33;40.24;101277.13;5103306;28;20044;-60
2022/03/12 00:41:51;;;;;;;15.77;7.78;;;;;;;12.33;40.24;101282.50;5104912;28;20048;-60
2022/03/12 00:44:19;;;;;;;11.27;7.63;;;;;;;12.32;40.31;101274.66;5100827;28;20130;-60
2022/03/12 00:46:48;;;;;;;11.52;7.72;;;;;;;12.28;40.31;101276.13;5105429;28;20120;-60
2022/03/12 00:49:15;;;;;;;13.20;8.35;;;;;;;12.29;40.48;101275.09;5102629;28;20039;-60
2022/03/12 00:51:44;;;;;;;13.85;8.00;;;;;;;12.27;40.68;101277.19;5103160;28;20055;-60
2022/03/12 00:54:12;;;;;;;13.50;7.72;;;;;;;12.27;40.68;101277.19;5105647;28;20054;-60
2022/03/12 00:56:40;;;;;;;14.30;8.05;;;;;;;12.24;41.01;101278.44;5102698;28;20074;-60
2022/03/12 00:59:09;;;;;;;12.85;7.57;;;;;;;12.24;40.99;101278.44;5102659;28;20067;-60
2022/03/12 01:01:37;;;;;;;13.18;8.73;;;;;;;12.24;40.94;101280.31;5101446;28;20047;-59
2022/03/12 01:04:06;;;;;;;13.57;7.45;;;;;;;12.19;40.86;101277.47;5104922;28;20056;-60
2022/03/12 01:06:35;;;;;;;12.05;7.93;;;;;;;12.09;40.83;101261.00;5104661;28;20079;-59
2022/03/12 01:09:03;;;;;;;17.38;7.65;;;;;;;12.20;41.12;101282.63;5104636;28;20485;-60
2022/03/12 01:11:31;;;;;;;11.40;7.78;;;;;;;12.20;41.28;101279.94;5102855;28;20052;-60
2022/03/12 01:13:58;;;;;;;13.20;8.15;;;;;;;12.19;41.02;101280.16;5102629;28;20044;-59
2022/03/12 01:16:27;;;;;;;12.38;7.63;;;;;;;12.19;41.17;101277.47;5104466;28;20582;-58
2022/03/12 01:18:55;;;;;;;11.07;7.40;;;;;;;12.17;41.32;101283.09;5100814;28;20043;-60
2022/03/12 01:21:23;;;;;;;11.50;8.35;;;;;;;12.16;41.44;101289.50;5097805;28;20079;-60
2022/03/12 01:23:51;;;;;;;12.23;7.75;;;;;;;12.15;41.47;101285.16;5096188;28;20119;-60
2022/03/12 01:26:22;;;;;;;12.02;7.47;;;;;;;12.15;41.38;101287.03;5096280;28;20055;-60
2022/03/12 01:28:49;;;;;;;12.35;7.72;;;;;;;12.15;41.66;101292.44;5104541;28;20140;-59
2022/03/12 01:31:18;;;;;;;11.95;8.18;;;;;;;12.15;41.62;101292.44;5103950;28;20410;-59
2022/03/12 01:33:48;;;;;;;13.10;7.72;;;;;;;12.13;41.92;101295.38;5097355;28;20075;-60
2022/03/12 01:36:16;;;;;;;13.40;7.50;;;;;;;12.14;41.97;101301.56;5103227;28;20102;-60
2022/03/12 01:38:48;;;;;;;17.73;7.88;;;;;;;12.15;42.12;101311.28;5103500;28;20044;-59
2022/03/12 01:41:21;;;;;;;13.52;8.13;;;;;;;12.12;42.22;101304.50;5096355;28;20105;-59
2022/03/12 01:43:49;;;;;;;13.70;8.68;;;;;;;12.13;42.43;101295.38;5102379;28;20044;-60
2022/03/12 01:46:18;;;;;;;13.70;8.35;;;;;;;12.07;42.31;101298.97;5098872;28;20066;-61
2022/03/12 01:48:52;;;;;;;16.52;8.88;;;;;;;12.12;42.62;101301.00;5103947;28;20048;-61
2022/03/12 01:51:20;;;;;;;12.40;7.85;;;;;;;12.10;42.59;101303.91;5098024;28;20322;-60
2022/03/12 01:53:47;;;;;;;12.57;7.70;;;;;;;12.10;42.74;101297.69;5099276;28;20052;-60
2022/03/12 01:56:15;;;;;;;11.85;7.93;;;;;;;12.08;42.93;101295.22;5102108;28;20079;-59
2022/03/12 01:58:47;;;;;;;11.70;7.68;;;;;;;12.07;43.02;101296.25;5103260;28;20075;-60
2022/03/12 02:01:15;;;;;;;12.20;7.05;;;;;;;12.07;43.07;101295.44;5101444;28;20439;-60
2022/03/12 02:03:46;;;;;;;13.18;8.15;;;;;;;12.07;43.07;101300.81;5102616;28;20044;-59
2022/03/12 02:06:21;;;;;;;13.15;8.18;;;;;;;12.05;42.90;101301.03;5103658;28;20082;-60
2022/03/12 02:08:49;;;;;;;15.90;8.40;;;;;;;12.04;43.00;101299.41;5103793;28;20143;-60
2022/03/12 02:11:21;;;;;;;13.40;7.35;;;;;;;12.02;43.08;101296.91;5102060;28;20326;-60
2022/03/12 02:13:49;;;;;;;14.50;7.90;;;;;;;12.00;43.29;101285.53;5103774;28;20048;-60
2022/03/12 02:16:17;;;;;;;12.40;8.05;;;;;;;12.00;43.28;101295.50;5102118;28;20076;-60
2022/03/12 02:18:48;;;;;;;13.07;8.35;;;;;;;12.00;43.34;101303.56;5103599;28;20080;-60
2022/03/12 02:21:31;;;;;;;14.10;8.23;;;;;;;12.00;43.54;101306.28;5101839;28;20056;-63
2022/03/12 02:24:00;;;;;;;12.68;7.72;;;;;;;11.97;43.44;101301.31;5101394;28;20072;-60
2022/03/12 02:26:28;;;;;;;14.82;8.27;;;;;;;11.95;43.39;101298.84;5093818;28;20113;-60
2022/03/12 02:28:57;;;;;;;10.90;7.35;;;;;;;11.95;43.42;101303.41;5101403;28;20071;-59
2022/03/12 02:31:26;;;;;;;13.23;8.32;;;;;;;11.93;43.53;101300.94;5096512;28;20079;-59
2022/03/12 02:33:55;;;;;;;11.80;7.68;;;;;;;11.92;43.45;101293.91;5104002;28;20040;-60
2022/03/12 02:36:27;;;;;;;10.63;7.53;;;;;;;11.90;43.57;101306.75;5101697;28;20082;-59
2022/03/12 02:38:56;;;;;;;11.05;7.22;;;;;;;11.90;43.52;101300.53;5102783;28;20071;-59
2022/03/12 02:41:25;;;;;;;11.55;7.70;;;;;;;11.89;43.58;101312.38;5099129;28;20521;-59
2022/03/12 02:43:53;;;;;;;12.10;8.05;;;;;;;11.84;43.61;101315.72;5097061;28;20055;-59
2022/03/12 02:46:22;;;;;;;15.23;8.30;;;;;;;11.88;43.56;101321.50;5100745;28;20043;-60
2022/03/12 02:48:52;;;;;;;13.05;7.80;;;;;;;11.87;43.58;101325.22;5103256;28;20043;-60
2022/03/12 02:51:21;;;;;;;10.82;6.95;;;;;;;11.86;43.64;101320.88;5095280;28;20051;-59
2022/03/12 02:53:51;;;;;;;10.50;7.13;;;;;;;11.85;43.63;101330.00;5102547;28;20060;-59
2022/03/12 02:56:19;;;;;;;11.55;7.55;;;;;;;11.85;43.74;101332.69;5098000;28;20665;-60
2022/03/12 02:58:48;;;;;;;12.52;7.65;;;;;;;11.83;43.62;101332.91;5102510;28;21691;-60
2022/03/12 03:01:16;;;;;;;12.88;7.38;;;;;;;11.83;43.70;101332.09;5102770;28;20114;-60
2022/03/12 03:03:46;;;;;;;11.48;7.28;;;;;;;11.83;43.74;101324.00;5103380;28;20151;-60
2022/03/12 03:06:14;;;;;;;12.90;7.35;;;;;;;11.84;43.97;101321.09;5100216;28;20047;-60
2022/03/12 03:08:43;;;;;;;12.43;7.80;;;;;;;11.84;43.92;101326.50;5102562;28;20052;-60
2022/03/12 03:11:13;;;;;;;10.82;7.25;;;;;;;11.83;43.89;101324.84;5101183;28;20047;-59
2022/03/12 03:13:44;;;;;;;14.00;7.45;;;;;;;11.83;43.90;101329.41;5101548;28;20157;-59
2022/03/12 03:16:18;;;;;;;11.68;7.75;;;;;;;11.81;44.01;101332.31;5102811;28;20097;-60
2022/03/12 03:18:51;;;;;;;12.52;7.18;;;;;;;11.81;44.15;101323.41;5086180;28;20059;-60
2022/03/12 03:21:20;;;;;;;12.13;7.57;;;;;;;11.81;44.14;101335.00;5099397;28;20044;-60
2022/03/12 03:23:48;;;;;;;15.77;7.18;;;;;;;11.80;44.31;101341.44;5093633;28;20044;-60
2022/03/12 03:26:24;;;;;;;14.57;7.57;;;;;;;11.79;44.42;101345.16;5101824;28;20082;-59
2022/03/12 03:28:52;;;;;;;10.77;7.40;;;;;;;11.78;44.51;101345.38;5099036;28;20084;-59
2022/03/12 03:31:21;;;;;;;9.95;7.13;;;;;;;11.78;44.64;101345.38;5102841;28;20100;-60
2022/03/12 03:33:49;;;;;;;10.40;5.95;;;;;;;11.77;44.79;101344.56;5097625;28;20074;-59
2022/03/12 03:36:17;;;;;;;9.25;6.15;;;;;;;11.76;44.86;101348.25;5101382;28;20098;-59
2022/03/12 03:38:46;;;;;;;11.85;6.88;;;;;;;11.74;44.99;101348.47;5100597;28;20082;-59
2022/03/12 03:41:15;;;;;;;11.45;6.47;;;;;;;11.73;45.22;101344.13;5102618;28;20076;-59
2022/03/12 03:43:46;;;;;;;10.50;6.20;;;;;;;11.72;45.50;101349.75;5102632;28;20055;-60
2022/03/12 03:46:17;;;;;;;17.80;7.72;;;;;;;11.70;45.54;101349.97;5100259;28;20068;-60
2022/03/12 03:48:50;;;;;;;9.25;6.10;;;;;;;11.70;45.75;101349.13;5101928;28;20059;-59
2022/03/12 03:51:18;;;;;;;9.07;5.78;;;;;;;11.69;45.93;101355.56;5097719;28;20469;-59
2022/03/12 03:53:46;;;;;;;9.45;6.18;;;;;;;11.68;46.02;101353.91;5101042;28;20544;-59
2022/03/12 03:56:16;;;;;;;8.82;5.93;;;;;;;11.67;46.04;101357.63;5100338;28;20051;-59
2022/03/12 03:58:43;;;;;;;8.63;5.93;;;;;;;11.66;46.23;101364.06;5099839;28;20048;-59
2022/03/12 04:01:15;;;;;;;7.35;5.50;;;;;;;11.64;46.56;101352.69;5100318;28;20040;-59
2022/03/12 04:03:47;;;;;;;7.45;5.00;;;;;;;11.63;46.64;101365.31;5096829;28;20052;-60
2022/03/12 04:06:18;;;;;;;6.85;4.97;;;;;;;11.63;46.62;101359.13;5095753;28;20040;-59
2022/03/12 04:08:46;;;;;;;7.70;4.70;;;;;;;11.61;46.75;101364.72;5105637;28;20079;-60
2022/03/12 04:11:16;;;;;;;6.55;4.57;;;;;;;11.60;46.75;101376.53;5105141;28;20072;-60
2022/03/12 04:13:45;;;;;;;8.88;5.07;;;;;;;11.59;47.16;101377.56;5095824;28;20055;-59
2022/03/12 04:16:14;;;;;;;6.68;4.35;;;;;;;11.58;47.16;101372.41;5103538;28;20083;-59
2022/03/12 04:18:42;;;;;;;7.57;5.28;;;;;;;11.56;47.23;101372.63;5106204;28;20044;-60
2022/03/12 04:21:10;;;;;;;6.38;4.30;;;;;;;11.56;47.19;101386.06;5105257;28;20473;-60
2022/03/12 04:23:39;;;;;;;7.32;4.70;;;;;;;11.47;47.04;101376.59;5101363;28;20076;-58
2022/03/12 04:26:06;;;;;;;8.48;4.78;;;;;;;11.52;47.40;101374.09;5105818;28;20104;-60
2022/03/12 04:28:34;;;;;;;6.15;4.53;;;;;;;11.52;47.36;101378.63;5103133;28;20504;-59
2022/03/12 04:31:03;;;;;;;6.90;4.50;;;;;;;11.24;47.74;101336.75;5105780;28;20119;-59
2022/03/12 04:33:31;;;;;;;6.22;4.10;;;;;;;11.51;47.66;101382.38;5106332;28;20072;-60
2022/03/12 04:36:00;;;;;;;6.10;4.00;;;;;;;11.49;47.71;101377.22;5104436;28;20098;-58
2022/03/12 04:38:28;;;;;;;7.60;4.05;;;;;;;11.50;47.69;101383.41;5103634;28;20091;-58
2022/03/12 04:40:58;;;;;;;6.53;4.00;;;;;;;11.50;47.93;101389.63;5102418;28;20418;-59
2022/03/12 04:43:28;;;;;;;6.97;4.25;;;;;;;11.50;47.94;101386.09;5105547;28;20079;-60
2022/03/12 04:45:58;;;;;;;4.75;2.83;;;;;;;11.38;47.94;101365.25;5092636;28;20060;-59
2022/03/12 04:48:28;;;;;;;5.35;3.72;;;;;;;11.49;48.03;101387.16;5102399;28;20536;-60
2022/03/12 04:50:57;;;;;;;6.13;3.75;;;;;;;11.45;48.05;101383.22;5100787;28;20060;-59
2022/03/12 04:53:26;;;;;;;4.60;3.30;;;;;;;11.48;48.16;101390.88;5105356;28;20075;-59
2022/03/12 04:55:54;;;;;;;6.38;3.75;;;;;;;11.47;48.31;101398.13;5103258;28;20044;-60
2022/03/12 04:58:23;;;;;;;4.47;3.13;;;;;;;11.48;48.30;101398.94;5099869;28;20052;-60
2022/03/12 05:00:51;;;;;;;5.03;3.20;;;;;;;11.39;48.25;101388.44;5102545;28;20036;-59
2022/03/12 05:03:21;;;;;;;5.78;3.55;;;;;;;11.47;48.38;101406.19;5105576;28;20051;-60
2022/03/12 05:05:50;;;;;;;4.38;2.90;;;;;;;11.47;48.36;101405.38;5104448;28;20062;-59
2022/03/12 05:08:21;;;;;;;4.82;3.28;;;;;;;11.44;48.71;101398.56;5104593;28;20079;-59
2022/03/12 05:10:51;;;;;;;4.32;3.15;;;;;;;11.45;48.81;101400.22;5103597;28;20078;-59
2022/03/12 05:13:22;;;;;;;4.88;3.30;;;;;;;11.43;48.80;101396.91;5103477;28;20083;-60
2022/03/12 05:15:53;;;;;;;5.13;2.92;;;;;;;11.42;48.86;101400.63;5104274;28;20154;-60
2022/03/12 05:18:23;;;;;;;5.05;3.10;;;;;;;11.40;48.86;101400.84;5097314;28;20409;-60
2022/03/12 05:20:52;;;;;;;5.25;2.80;;;;;;;11.39;48.79;101412.66;5099724;28;20094;-60
2022/03/12 05:23:20;;;;;;;5.68;3.20;;;;;;;11.40;48.87;101418.84;5105120;28;20457;-60
2022/03/12 05:25:49;;;;;;;4.68;3.33;;;;;;;11.39;49.21;101419.91;5096818;28;20048;-59
2022/03/12 05:28:22;;;;;;;3.75;2.78;;;;;;;11.37;49.19;101416.59;5104458;28;20063;-59
2022/03/12 05:30:54;;;;;;;5.38;3.22;;;;;;;11.36;49.26;101425.72;5102209;28;20341;-59
2022/03/12 05:33:22;;;;;;;5.38;2.92;;;;;;;11.34;49.28;101423.22;5102252;28;20048;-59
2022/03/12 05:35:53;;;;;;;5.05;3.22;;;;;;;11.30;49.58;101429.25;5103267;28;20044;-59
2022/03/12 05:38:21;;;;;;;5.28;3.45;;;;;;;11.31;49.39;101429.03;5101104;28;20503;-60
2022/03/12 05:40:50;;;;;;;5.32;3.20;;;;;;;11.29;49.61;101431.13;5103887;28;20120;-59
2022/03/12 05:43:18;;;;;;;4.03;3.10;;;;;;;11.29;49.54;101441.06;5103893;28;20362;-59
2022/03/12 05:45:48;;;;;;;4.55;3.30;;;;;;;11.28;49.66;101431.31;5087893;28;20052;-59
2022/03/12 05:48:17;;;;;;;5.00;3.25;;;;;;;11.27;49.55;101435.06;5090967;28;20044;-60
2022/03/12 05:50:48;;;;;;;5.00;3.33;;;;;;;11.25;49.77;101442.50;5098955;28;20083;-59
2022/03/12 05:53:19;;;;;;;5.35;3.35;;;;;;;11.22;49.79;101446.44;5103090;28;20047;-60
2022/03/12 05:55:48;;;;;;;4.70;3.42;;;;;;;11.22;49.82;101457.22;5103333;28;20048;-58
2022/03/12 05:58:18;;;;;;;5.20;3.58;;;;;;;11.20;50.00;101453.06;5101338;28;20048;-60
2022/03/12 06:00:46;;;;;;;6.43;3.55;;;;;;;11.20;49.92;101453.91;5098356;28;20833;-59
2022/03/12 06:03:14;;;;;;;5.03;3.97;;;;;;;11.19;49.78;101451.44;5095680;28;20052;-59
2022/03/12 06:05:45;;;;;;;5.05;3.50;;;;;;;11.17;50.08;101446.25;5101050;28;20048;-58
2022/03/12 06:08:20;;;;;;;6.68;3.97;;;;;;;11.16;49.76;101446.47;5103831;28;20048;-60
2022/03/12 06:10:52;;;;;;;5.72;3.85;;;;;;;11.15;50.23;101456.41;5099061;28;20047;-60
2022/03/12 06:13:22;;;;;;;5.13;3.35;;;;;;;11.11;50.11;101455.16;5102516;28;20052;-59
2022/03/12 06:15:58;;;;;;;5.80;3.75;;;;;;;11.15;50.16;101463.66;5102610;28;20068;-59
2022/03/12 06:18:27;;;;;;;8.77;4.38;;;;;;;11.15;50.10;101459.09;5104215;28;20126;-60
2022/03/12 06:20:57;;;;;;;6.32;4.20;;;;;;;11.15;49.97;101466.34;5100640;28;20047;-60
2022/03/12 06:23:24;;;;;;;6.35;4.00;;;;;;;11.15;49.84;101463.66;5093009;28;20465;-59
2022/03/12 06:25:53;;;;;;;5.47;3.78;;;;;;;11.14;49.79;101470.06;5102801;28;20055;-59
2022/03/12 06:28:21;;;;;;;5.35;3.63;;;;;;;11.14;49.73;101476.28;5103785;28;20051;-59
2022/03/12 06:30:53;;;;;;;5.85;3.95;;;;;;;11.15;49.76;101469.84;5101817;28;20048;-59
2022/03/12 06:33:22;;;;;;;6.38;3.65;;;;;;;11.14;49.88;101475.44;5104313;28;20074;-59
2022/03/12 06:35:51;;;;;;;4.65;3.35;;;;;;;11.11;50.16;101471.31;5087999;28;20052;-60
2022/03/12 06:38:22;;;;;;;5.80;3.67;;;;;;;11.14;49.77;101470.88;5102307;28;20048;-59
2022/03/12 06:40:51;;;;;;;7.22;4.05;;;;;;;11.14;49.96;101470.06;5099589;28;20063;-59
2022/03/12 06:43:19;;;;;;;4.43;3.58;;;;;;;11.13;50.04;101474.63;5103061;28;20067;-59
2022/03/12 06:45:49;;;;;;;5.15;3.28;;;;;;;11.13;50.30;101488.06;5102883;28;20043;-59
2022/03/12 06:48:17;;;;;;;5.82;3.90;;;;;;;11.13;50.28;101490.75;5103309;28;20490;-59
2022/03/12 06:50:46;;;;;;;5.53;3.65;;;;;;;11.12;50.48;101485.59;5097235;28;20056;-60
2022/03/12 06:53:14;;;;;;;4.97;3.70;;;;;;;11.11;50.45;101482.06;5098224;28;20062;-60
2022/03/12 06:55:44;;;;;;;4.85;3.28;;;;;;;11.03;50.76;101474.22;5099758;28;20052;-61
2022/03/12 06:58:12;;;;;;;6.03;4.10;;;;;;;11.10;50.44;101483.09;5102103;28;20044;-61
2022/03/12 07:00:40;;;;;;;5.63;3.75;;;;;;;11.10;50.33;101488.50;5102819;28;20067;-63
2022/03/12 07:03:08;;;;;;;5.50;3.50;;;;;;;11.08;50.72;101498.63;5102527;28;20066;-60
2022/03/12 07:05:36;;;;;;;4.97;3.60;;;;;;;11.08;50.59;101498.63;5102908;28;20078;-59
2022/03/12 07:08:05;;;;;;;6.03;3.47;;;;;;;11.07;50.38;101499.66;5101477;28;20060;-60
2022/03/12 07:10:33;;;;;;;6.43;3.63;;;;;;;11.06;50.57;101498.84;5102305;28;20095;-60
2022/03/12 07:13:02;;;;;;;6.13;3.80;;;;;;;11.06;50.47;101503.38;5101212;28;20499;-61
2022/03/12 07:15:30;;;;;;;4.53;3.10;;;;;;;11.06;50.83;101506.09;5103225;28;20052;-61
2022/03/12 07:17:58;;;;;;;4.88;3.47;;;;;;;11.05;50.59;101507.13;5090583;28;20061;-62
2022/03/12 07:20:26;;;;;;;5.30;3.30;;;;;;;11.04;50.83;101502.78;5089693;28;20059;-61
2022/03/12 07:22:54;;;;;;;5.13;3.35;;;;;;;11.04;50.77;101511.66;5090051;28;20579;-62
2022/03/12 07:25:22;;;;;;;5.43;3.30;;;;;;;11.04;50.83;101516.22;5100875;28;20059;-63
2022/03/12 07:27:49;;;;;;;6.53;3.55;;;;;;;11.03;50.68;101520.78;5099757;28;20048;-61
2022/03/12 07:30:19;;;;;;;5.15;3.22;;;;;;;11.00;50.58;101505.06;5089900;28;20071;-60
2022/03/12 07:32:47;;;;;;;6.13;3.28;;;;;;;11.04;50.36;101522.44;5101173;28;20099;-61
2022/03/12 07:35:17;;;;;;;5.70;3.58;;;;;;;11.04;50.81;101519.75;5101263;28;20083;-61
2022/03/12 07:37:50;;;;;;;5.25;3.53;;;;;;;11.05;50.65;101518.69;5089115;28;20067;-60
2022/03/12 07:40:18;;;;;;;5.35;3.30;;;;;;;10.99;51.77;101526.78;5097223;28;20111;-60
2022/03/12 07:42:47;;;;;;;6.78;3.40;;;;;;;11.05;51.66;101529.47;5096985;28;20078;-60
2022/03/12 07:45:15;;;;;;;5.90;3.53;;;;;;;11.06;51.83;101530.28;5102913;28;20150;-59
2022/03/12 07:47:45;;;;;;;4.85;3.25;;;;;;;11.07;51.39;101534.63;5102115;28;20055;-62
2022/03/12 07:50:13;;;;;;;6.55;3.33;;;;;;;11.08;51.80;101541.66;5100467;28;20313;-61
2022/03/12 07:52:42;;;;;;;5.35;3.33;;;;;;;10.96;51.35;101519.94;5102594;28;20048;-60
2022/03/12 07:55:11;;;;;;;5.65;3.47;;;;;;;11.09;51.95;101544.16;5104861;28;20059;-59
2022/03/12 07:57:41;;;;;;;5.75;3.13;;;;;;;11.10;51.54;101547.66;5105325;28;20050;-59
2022/03/12 08:00:12;;;;;;;4.65;3.45;;;;;;;11.10;51.17;101553.06;5106015;28;20076;-58
2022/03/12 08:02:41;;;;;;;4.93;3.42;;;;;;;11.06;51.05;101546.44;5106546;28;20066;-59
2022/03/12 08:05:10;;;;;;;5.15;3.20;;;;;;;11.10;51.37;101553.06;5095895;28;20093;-59
2022/03/12 08:07:39;;;;;;;4.00;2.92;;;;;;;11.11;51.30;101560.09;5105612;28;20075;-59
2022/03/12 08:10:08;;;;;;;4.50;3.10;;;;;;;11.15;50.95;101560.50;5102203;28;20442;-58
2022/03/12 08:12:37;;;;;;;6.38;3.15;;;;;;;11.16;50.79;101562.16;5105199;28;20055;-59
2022/03/12 08:15:08;;;;;;;7.65;3.40;;;;;;;11.16;51.34;101564.84;5103310;28;20150;-58
2022/03/12 08:17:36;;;;;;;5.25;3.17;;;;;;;11.18;51.03;101574.34;5106540;28;20044;-59
2022/03/12 08:20:07;;;;;;;6.25;3.60;;;;;;;11.21;51.68;101567.72;5106058;28;20116;-59
2022/03/12 08:22:38;;;;;;;7.63;3.90;;;;;;;11.22;51.38;101572.09;5101821;28;20059;-58
2022/03/12 08:25:08;;;;;;;7.25;3.30;;;;;;;11.22;51.37;101578.28;5106463;28;20051;-60
2022/03/12 08:27:36;;;;;;;7.82;3.30;;;;;;;11.24;51.72;101586.16;5104252;28;20046;-60
2022/03/12 08:30:07;;;;;;;5.47;3.15;;;;;;;11.26;52.19;101574.16;5106345;28;20052;-59
2022/03/12 08:32:36;;;;;;;6.20;3.40;;;;;;;11.26;52.51;101578.69;5106188;28;20090;-60
2022/03/12 08:35:05;;;;;;;5.35;3.67;;;;;;;11.27;51.85;101585.75;5092856;28;20052;-60
2022/03/12 08:37:33;;;;;;;5.90;3.63;;;;;;;11.27;52.21;101593.81;5105807;28;20066;-60
2022/03/12 08:40:06;;;;;;;9.52;4.32;;;;;;;11.29;52.71;101602.50;5093608;28;20082;-59
2022/03/12 08:42:34;;;;;;;10.32;3.90;;;;;;;11.32;52.76;101600.22;5100929;28;20055;-59
2022/03/12 08:45:03;;;;;;;8.02;4.15;;;;;;;11.32;53.08;101600.22;5105719;28;20048;-59
2022/03/12 08:47:30;;;;;;;8.02;4.18;;;;;;;11.42;53.47;101599.78;5102167;28;20056;-59
2022/03/12 08:49:58;;;;;;;11.60;4.68;;;;;;;11.50;53.05;101601.44;5105633;28;20048;-59
2022/03/12 08:52:26;;;;;;;7.38;3.55;;;;;;;11.54;52.98;101595.44;5105387;28;20322;-59
2022/03/12 08:54:53;;;;;;;7.28;4.00;;;;;;;11.54;53.05;101597.28;5095846;28;20079;-59
2022/03/12 08:57:22;;;;;;;9.60;3.75;;;;;;;11.77;54.51;101604.91;5104596;28;20103;-59
2022/03/12 08:59:50;;;;;;;6.72;3.53;;;;;;;11.69;52.88;101612.19;5105264;28;20048;-60
2022/03/12 09:02:18;;;;;;;6.55;3.42;;;;;;;11.70;52.84;101607.63;5105276;28;20107;-59
2022/03/12 09:04:46;;;;;;;8.95;3.70;;;;;;;11.65;52.85;101605.56;5101808;28;20070;-60
2022/03/12 09:07:13;;;;;;;7.07;3.20;;;;;;;11.68;53.15;101602.44;5105701;28;20090;-58
2022/03/12 09:09:41;;;;;;;5.97;2.95;;;;;;;11.68;53.21;101607.00;5104989;28;20508;-60
2022/03/12 09:12:10;;;;;;;9.07;4.32;;;;;;;11.69;52.92;101609.50;5102511;28;20071;-59
2022/03/12 09:14:39;;;;;;;9.50;3.92;;;;;;;11.79;53.08;101610.94;5105405;28;20087;-60
2022/03/12 09:17:07;;;;;;;9.88;3.30;;;;;;;11.82;53.01;101622.13;5101749;28;20524;-59
2022/03/12 09:19:35;;;;;;;8.00;3.60;;;;;;;11.84;53.10;101619.22;5104509;28;20051;-61
2022/03/12 09:22:04;;;;;;;11.15;3.45;;;;;;;11.81;52.71;101616.94;5105441;28;20082;-59
2022/03/12 09:24:32;;;;;;;10.68;3.58;;;;;;;11.82;53.28;101616.75;5103454;28;20075;-59
2022/03/12 09:27:00;;;;;;;5.72;2.80;;;;;;;11.82;53.19;101607.84;5104405;28;20075;-59
2022/03/12 09:29:27;;;;;;;7.38;2.88;;;;;;;11.85;53.17;101619.00;5104580;28;20124;-59
2022/03/12 09:31:56;;;;;;;8.18;2.97;;;;;;;11.87;52.97;101618.81;5094374;28;20053;-61
2022/03/12 09:34:24;;;;;;;7.07;3.28;;;;;;;11.98;52.75;101621.66;5104699;28;20048;-60
2022/03/12 09:36:52;;;;;;;5.22;2.67;;;;;;;12.09;52.37;101612.09;5101660;28;20052;-59
2022/03/12 09:39:20;;;;;;;6.22;2.95;;;;;;;12.00;52.57;101618.75;5103948;28;20059;-60
2022/03/12 09:41:48;;;;;;;4.85;2.17;;;;;;;11.96;52.70;101612.97;5097131;28;20048;-59
2022/03/12 09:44:16;;;;;;;5.80;2.70;;;;;;;11.95;52.85;101616.69;5096554;28;20451;-60
2022/03/12 09:46:44;;;;;;;6.85;2.60;;;;;;;12.10;52.12;101613.75;5105026;28;20047;-60
2022/03/12 09:49:14;;;;;;;4.75;2.80;;;;;;;12.15;52.26;101613.91;5103813;28;20120;-60
2022/03/12 09:51:42;;;;;;;7.78;2.60;;;;;;;12.07;52.62;101616.03;5095242;28;20245;-59
2022/03/12 09:54:11;;;;;;;7.82;3.15;;;;;;;12.11;52.61;101617.28;5104601;28;20072;-60
2022/03/12 09:56:39;;;;;;;6.47;2.55;;;;;;;12.14;52.70;101620.34;5104138;28;20055;-59
2022/03/12 09:59:06;;;;;;;6.55;2.38;;;;;;;12.07;52.77;101614.19;5089360;28;20059;-59
2022/03/12 10:01:35;;;;;;;4.72;2.38;;;;;;;12.12;52.75;101621.63;5100893;28;20102;-60
2022/03/12 10:04:03;;;;;;;6.28;2.28;;;;;;;12.33;52.26;101629.38;5104175;28;20108;-59
2022/03/12 10:06:33;;;;;;;4.90;2.30;;;;;;;12.17;52.44;101636.09;5104468;28;20052;-60
2022/03/12 10:09:03;;;;;;;4.97;2.45;;;;;;;12.13;52.61;101631.34;5100679;28;20048;-60
2022/03/12 10:11:30;;;;;;;6.32;2.47;;;;;;;12.10;52.66;101629.09;5103211;28;20048;-59
2022/03/12 10:13:58;;;;;;;4.20;2.10;;;;;;;12.30;52.36;101632.50;5098341;28;20083;-59
2022/03/12 10:16:29;;;;;;;4.35;2.42;;;;;;;12.18;52.65;101624.25;5104174;28;20075;-60
2022/03/12 10:18:57;;;;;;;5.13;2.28;;;;;;;12.27;52.63;101622.97;5093715;28;20054;-61
2022/03/12 10:21:25;;;;;;;6.45;2.13;;;;;;;12.24;53.30;101625.28;5102331;28;20544;-59
2022/03/12 10:23:54;;;;;;;4.43;2.08;;;;;;;12.28;53.23;101626.50;5099735;28;20051;-60
2022/03/12 10:26:22;;;;;;;4.28;2.47;;;;;;;12.32;52.53;101633.13;5101176;28;20527;-59
2022/03/12 10:28:50;;;;;;;4.28;1.90;;;;;;;12.29;52.88;101636.25;5103698;28;20048;-59
2022/03/12 10:31:19;;;;;;;6.63;2.33;;;;;;;12.64;52.40;101624.03;5102069;28;20055;-60
2022/03/12 10:33:47;;;;;;;3.30;2.00;;;;;;;12.53;52.35;101634.69;5103339;28;20055;-59
2022/03/12 10:36:17;;;;;;;4.63;2.13;;;;;;;12.57;52.22;101625.94;5096691;28;20059;-59
2022/03/12 10:38:47;;;;;;;3.92;2.22;;;;;;;12.61;52.21;101618.25;5103237;28;20080;-60
2022/03/12 10:41:16;;;;;;;5.63;2.47;;;;;;;12.48;52.31;101638.03;5103213;28;20095;-60
2022/03/12 10:43:46;;;;;;;3.38;1.77;;;;;;;12.38;52.75;101630.41;5098988;28;20036;-59
2022/03/12 10:46:20;;;;;;;4.93;2.25;;;;;;;12.35;52.80;101630.81;5090846;28;20048;-60
2022/03/12 10:48:52;;;;;;;6.18;1.95;;;;;;;12.41;52.55;101637.22;5100679;28;20109;-59
2022/03/12 10:51:21;;;;;;;5.30;2.10;;;;;;;12.36;52.66;101629.78;5103646;28;20072;-59
2022/03/12 10:53:49;;;;;;;5.32;1.73;;;;;;;12.35;52.70;101619.22;5101976;28;20044;-60
2022/03/12 10:56:18;;;;;;;4.22;1.90;;;;;;;12.84;52.24;101617.69;5092246;28;20059;-60
2022/03/12 10:58:46;;;;;;;3.83;2.08;;;;;;;12.69;51.73;101612.59;5100212;28;20084;-60
2022/03/12 11:01:24;;;;;;;3.85;1.98;;;;;;;12.61;52.11;101605.59;5103891;28;20044;-58
2022/03/12 11:03:52;;;;;;;6.30;1.77;;;;;;;12.58;52.43;101611.41;5102010;28;20111;-59
2022/03/12 11:06:23;;;;;;;10.13;2.00;;;;;;;12.84;52.44;101617.69;5103359;28;20091;-59
2022/03/12 11:08:51;;;;;;;3.72;1.88;;;;;;;13.03;52.20;101633.75;5103130;28;20048;-60
2022/03/12 11:11:22;;;;;;;5.43;2.35;;;;;;;12.90;51.76;101639.22;5098094;28;20071;-60
2022/03/12 11:13:51;;;;;;;3.10;1.90;;;;;;;12.93;51.57;101630.69;5099564;28;20072;-59
2022/03/12 11:16:22;;;;;;;4.65;1.90;;;;;;;12.77;52.04;101630.41;5101966;28;20058;-60
2022/03/12 11:19:10;;;;;;;5.38;1.65;;;;;;;12.69;52.28;101632.31;5097844;28;20048;-59
2022/03/12 11:21:41;;;;;;;9.15;2.10;;;;;;;12.66;52.39;101640.00;5103816;28;20048;-60
2022/03/12 11:24:15;;;;;;;3.88;1.73;;;;;;;12.85;52.59;101633.66;5102384;28;20044;-60
2022/03/12 11:26:48;;;;;;;3.55;1.65;;;;;;;13.07;51.71;101633.31;5102833;28;20457;-60
2022/03/12 11:29:17;;;;;;;5.75;1.98;;;;;;;13.08;51.53;101626.88;5098962;28;20079;-60
2022/03/12 11:31:48;;;;;;;4.82;2.28;;;;;;;12.93;51.48;101628.00;5103982;28;20066;-60